createdAt,value
2022-11-28T00:01:27.477Z,10.37
2022-11-28T00:03:55.208Z,12.50
2022-11-28T00:06:23.481Z,11.37
2022-11-28T00:08:51.555Z,11.70
2022-11-28T00:11:20.591Z,10.57
2022-11-28T00:13:48.200Z,9.20
2022-11-28T00:16:17.590Z,11.23
2022-11-28T00:18:45.718Z,10.40
2022-11-28T00:21:14.682Z,11.13
2022-11-28T00:23:42.321Z,10.57
2022-11-28T00:26:11.826Z,10.20
2022-11-28T00:28:41.069Z,9.63
2022-11-28T00:31:13.502Z,10.30
2022-11-28T00:33:41.089Z,11.40
2022-11-28T00:36:09.287Z,10.80
2022-11-28T00:38:37.255Z,9.90
2022-11-28T00:41:06.652Z,9.70
2022-11-28T00:43:34.607Z,9.60
2022-11-28T00:46:04.201Z,10.83
2022-11-28T00:48:33.054Z,9.70
2022-11-28T00:51:07.616Z,11.33
2022-11-28T00:53:35.267Z,9.80
2022-11-28T00:56:05.313Z,10.53
2022-11-28T00:58:33.638Z,9.07
2022-11-28T01:01:03.689Z,10.13
2022-11-28T01:03:31.315Z,8.90
2022-11-28T01:05:58.935Z,9.23
2022-11-28T01:08:26.727Z,9.30
2022-11-28T01:10:54.393Z,9.00
2022-11-28T01:13:22.200Z,9.60
2022-11-28T01:15:49.845Z,8.10
2022-11-28T01:30:57.879Z,9.37
2022-11-28T01:33:25.657Z,9.20
2022-11-28T01:35:56.838Z,8.80
2022-11-28T01:38:24.779Z,10.03
2022-11-28T01:40:52.901Z,8.83
2022-11-28T01:43:20.731Z,8.53
2022-11-28T01:45:48.671Z,7.90
2022-11-28T01:48:21.927Z,7.83
2022-11-28T01:50:51.310Z,8.07
2022-11-28T01:53:19.144Z,8.50
2022-11-28T01:55:56.539Z,8.07
2022-11-28T01:58:24.343Z,8.53
2022-11-28T02:00:52.936Z,8.60
2022-11-28T02:03:24.294Z,8.00
2022-11-28T02:05:52.630Z,7.03
2022-11-28T02:08:20.455Z,8.10
2022-11-28T02:11:02.018Z,8.13
2022-11-28T02:13:38.034Z,8.60
2022-11-28T02:16:15.770Z,7.50
2022-11-28T02:18:59.252Z,8.57
2022-11-28T02:21:53.103Z,8.83
2022-11-28T02:24:48.629Z,6.73
2022-11-28T02:27:24.301Z,8.87
2022-11-28T02:30:06.206Z,8.27
2022-11-28T02:32:43.858Z,7.00
2022-11-28T02:35:14.772Z,7.50
2022-11-28T02:37:46.272Z,8.40
2022-11-28T02:40:22.183Z,8.23
2022-11-28T02:42:57.712Z,8.00
2022-11-28T02:45:30.432Z,7.90
2022-11-28T02:48:03.462Z,8.50
2022-11-28T02:50:34.340Z,9.10
2022-11-28T02:53:06.545Z,8.50
2022-11-28T02:55:34.557Z,8.53
2022-11-28T02:58:02.317Z,8.70
2022-11-28T03:00:31.497Z,7.63
2022-11-28T03:03:16.295Z,9.37
2022-11-28T03:05:47.395Z,8.30
2022-11-28T03:08:26.145Z,8.63
2022-11-28T03:10:59.576Z,7.73
2022-11-28T03:13:32.877Z,9.20
2022-11-28T03:16:04.423Z,7.83
2022-11-28T03:18:35.661Z,7.90
2022-11-28T03:21:09.502Z,8.60
2022-11-28T03:23:42.851Z,7.07
2022-11-28T03:26:13.832Z,8.13
2022-11-28T03:28:45.406Z,8.60
2022-11-28T03:31:16.831Z,9.10
2022-11-28T03:33:49.658Z,8.17
2022-11-28T03:36:19.495Z,7.60
2022-11-28T03:38:49.841Z,7.10
2022-11-28T03:41:19.985Z,7.83
2022-11-28T03:43:50.786Z,7.53
2022-11-28T03:46:20.459Z,7.20
2022-11-28T03:48:51.803Z,8.37
2022-11-28T03:51:21.199Z,7.00
2022-11-28T03:53:52.085Z,7.70
2022-11-28T03:56:22.769Z,7.90
2022-11-28T03:58:53.616Z,7.80
2022-11-28T04:01:28.513Z,6.73
2022-11-28T04:04:02.251Z,7.70
2022-11-28T04:06:36.887Z,9.57
2022-11-28T04:09:11.516Z,7.80
2022-11-28T04:11:46.566Z,8.87
2022-11-28T04:14:18.841Z,8.67
2022-11-28T04:16:54.005Z,8.10
2022-11-28T04:19:29.295Z,7.50
2022-11-28T04:22:00.383Z,7.80
2022-11-28T04:24:30.720Z,7.20
2022-11-28T04:27:01.313Z,8.77
2022-11-28T04:29:32.974Z,7.43
2022-11-28T04:32:01.528Z,7.30
2022-11-28T04:34:31.948Z,8.10
2022-11-28T04:37:04.282Z,9.77
2022-11-28T04:39:36.449Z,9.13
2022-11-28T04:42:07.754Z,8.30
2022-11-28T04:44:38.947Z,8.90
2022-11-28T04:47:06.490Z,9.07
2022-11-28T04:49:35.766Z,8.70
2022-11-28T04:52:07.359Z,9.20
2022-11-28T04:54:39.095Z,9.27
2022-11-28T04:57:13.337Z,10.93
2022-11-28T04:59:41.860Z,8.33
2022-11-28T05:02:09.984Z,7.90
2022-11-28T05:04:39.232Z,9.60
2022-11-28T05:07:09.485Z,8.90
2022-11-28T05:09:38.244Z,9.90
2022-11-28T05:12:06.462Z,7.97
2022-11-28T05:14:33.998Z,9.00
2022-11-28T05:17:01.591Z,8.40
2022-11-28T05:19:29.219Z,9.33
2022-11-28T05:21:58.105Z,9.00
2022-11-28T05:24:31.931Z,9.60
2022-11-28T05:27:00.142Z,8.73
2022-11-28T05:29:27.744Z,8.93
2022-11-28T05:31:55.384Z,9.07
2022-11-28T05:34:23.090Z,8.97
2022-11-28T05:36:50.679Z,8.50
2022-11-28T05:39:19.771Z,8.63
2022-11-28T05:41:47.680Z,8.93
2022-11-28T05:44:15.283Z,8.67
2022-11-28T05:46:42.873Z,9.03
2022-11-28T05:49:10.779Z,8.50
2022-11-28T05:51:38.384Z,8.80
2022-11-28T05:54:06.722Z,7.93
2022-11-28T05:56:40.911Z,8.90
2022-11-28T05:59:10.072Z,8.40
2022-11-28T06:01:37.630Z,8.50
2022-11-28T06:04:05.619Z,10.17
2022-11-28T06:06:35.405Z,8.73
2022-11-28T06:09:03.074Z,9.37
2022-11-28T06:11:31.999Z,9.20
2022-11-28T06:14:00.947Z,9.60
2022-11-28T06:16:30.691Z,9.83
2022-11-28T06:18:59.670Z,9.80
2022-11-28T06:21:27.700Z,8.27
2022-11-28T06:23:55.673Z,10.60
2022-11-28T06:26:24.521Z,10.23
2022-11-28T06:28:52.298Z,10.13
2022-11-28T06:31:22.709Z,9.20
2022-11-28T06:33:50.557Z,8.40
2022-11-28T06:36:19.807Z,9.90
2022-11-28T06:38:47.864Z,8.60
2022-11-28T06:41:17.536Z,9.90
2022-11-28T06:43:46.525Z,8.60
2022-11-28T06:46:16.379Z,9.07
2022-11-28T06:48:45.683Z,12.60
2022-11-28T06:51:14.141Z,10.50
2022-11-28T06:53:41.765Z,10.67
2022-11-28T06:56:11.636Z,8.63
2022-11-28T06:58:39.271Z,8.40
2022-11-28T07:01:08.462Z,9.47
2022-11-28T07:03:36.115Z,10.27
2022-11-28T07:06:06.228Z,9.13
2022-11-28T07:08:34.523Z,9.90
2022-11-28T07:11:09.095Z,9.90
2022-11-28T07:13:37.253Z,9.40
2022-11-28T07:16:05.261Z,8.23
2022-11-28T07:18:33.387Z,10.00
2022-11-28T07:21:01.116Z,9.97
2022-11-28T07:23:29.983Z,10.90
2022-11-28T07:26:00.834Z,9.47
2022-11-28T07:28:28.990Z,9.30
2022-11-28T07:31:05.057Z,9.97
2022-11-28T07:33:32.864Z,11.07
2022-11-28T07:36:01.666Z,10.27
2022-11-28T07:38:30.704Z,11.37
2022-11-28T07:41:04.363Z,8.67
2022-11-28T07:43:31.995Z,10.07
2022-11-28T07:46:01.578Z,8.53
2022-11-28T07:48:29.618Z,10.20
2022-11-28T07:50:57.500Z,11.50
2022-11-28T07:53:25.159Z,10.47
2022-11-28T07:55:54.202Z,11.50
2022-11-28T07:58:22.648Z,10.17
2022-11-28T08:00:50.313Z,10.97
2022-11-28T08:03:18.057Z,10.63
2022-11-28T08:05:49.528Z,10.80
2022-11-28T08:08:18.267Z,10.00
2022-11-28T08:10:46.029Z,11.70
2022-11-28T08:13:15.153Z,10.83
2022-11-28T08:15:42.958Z,10.47
2022-11-28T08:18:10.902Z,11.77
2022-11-28T08:20:38.463Z,9.97
2022-11-28T08:23:06.072Z,10.70
2022-11-28T08:25:33.631Z,11.50
2022-11-28T08:28:01.391Z,12.57
2022-11-28T08:30:30.753Z,11.07
2022-11-28T08:32:58.555Z,12.23
2022-11-28T08:35:26.160Z,11.67
2022-11-28T08:37:56.534Z,11.23
2022-11-28T08:40:28.707Z,11.50
2022-11-28T08:42:56.600Z,11.60
2022-11-28T08:45:24.581Z,12.10
2022-11-28T08:47:53.620Z,12.07
2022-11-28T08:50:21.291Z,11.20
2022-11-28T08:52:49.956Z,12.03
2022-11-28T08:55:19.955Z,11.90
2022-11-28T08:57:51.172Z,12.47
2022-11-28T09:00:20.380Z,12.07
2022-11-28T09:02:48.055Z,12.33
2022-11-28T09:05:17.013Z,11.20
2022-11-28T09:07:44.861Z,11.30
2022-11-28T09:10:12.721Z,11.07
2022-11-28T09:12:40.405Z,12.30
2022-11-28T09:15:10.534Z,12.37
2022-11-28T09:17:38.217Z,11.73
2022-11-28T09:20:07.207Z,13.70
2022-11-28T09:22:36.395Z,11.67
2022-11-28T09:25:04.168Z,10.13
2022-11-28T09:27:31.925Z,12.90
2022-11-28T09:29:59.519Z,10.33
2022-11-28T09:32:27.084Z,12.10
2022-11-28T09:34:54.667Z,11.57
2022-11-28T09:37:22.304Z,11.80
2022-11-28T09:40:12.139Z,13.10
2022-11-28T09:42:43.983Z,11.83
2022-11-28T09:45:14.671Z,12.30
2022-11-28T09:47:44.386Z,11.20
2022-11-28T09:50:16.486Z,11.63
2022-11-28T09:52:48.271Z,11.50
2022-11-28T09:55:23.951Z,12.50
2022-11-28T09:57:53.348Z,12.50
2022-11-28T10:00:22.960Z,13.10
2022-11-28T10:03:15.453Z,11.20
2022-11-28T10:05:45.313Z,11.80
2022-11-28T10:08:23.123Z,11.03
2022-11-28T10:10:58.281Z,11.83
2022-11-28T10:13:41.356Z,10.80
2022-11-28T10:16:18.469Z,10.93
2022-11-28T10:18:48.852Z,12.13
2022-11-28T10:21:28.068Z,10.50
2022-11-28T10:23:58.129Z,11.47
2022-11-28T10:26:32.180Z,11.53
2022-11-28T10:29:00.995Z,11.37
2022-11-28T10:31:32.019Z,11.67
2022-11-28T10:34:04.591Z,11.63
2022-11-28T10:36:38.536Z,11.60
2022-11-28T10:39:11.554Z,12.03
2022-11-28T10:41:45.211Z,11.50
2022-11-28T10:44:21.297Z,10.60
2022-11-28T10:46:56.301Z,10.37
2022-11-28T10:49:30.988Z,9.80
2022-11-28T10:52:05.111Z,10.70
2022-11-28T10:54:47.622Z,11.00
2022-11-28T10:57:19.177Z,10.90
2022-11-28T11:00:00.824Z,11.17
2022-11-28T11:02:34.842Z,11.07
2022-11-28T11:05:02.712Z,10.47
2022-11-28T11:07:31.541Z,11.17
2022-11-28T11:10:01.979Z,11.03
2022-11-28T11:12:32.804Z,10.60
2022-11-28T11:15:00.481Z,10.90
2022-11-28T11:17:36.288Z,9.83
2022-11-28T11:20:26.724Z,10.63
2022-11-28T11:22:55.863Z,10.70
2022-11-28T11:25:24.381Z,10.20
2022-11-28T11:27:54.792Z,11.20
2022-11-28T11:30:28.124Z,11.30
2022-11-28T11:32:56.500Z,10.33
2022-11-28T11:35:26.567Z,10.73
2022-11-28T11:37:54.355Z,10.67
2022-11-28T11:40:25.801Z,11.80
2022-11-28T11:42:56.804Z,13.17
2022-11-28T11:45:30.026Z,11.50
2022-11-28T11:47:57.833Z,11.30
2022-11-28T11:50:27.093Z,11.83
2022-11-28T11:53:02.433Z,11.17
2022-11-28T11:55:32.746Z,11.87
2022-11-28T11:58:05.910Z,11.30
2022-11-28T12:00:37.295Z,12.13
2022-11-28T12:03:08.565Z,10.10
2022-11-28T12:05:59.326Z,12.03
2022-11-28T12:08:34.541Z,13.23
2022-11-28T12:11:11.942Z,11.83
2022-11-28T12:13:40.836Z,11.80
2022-11-28T12:16:16.134Z,11.57
2022-11-28T12:18:52.559Z,11.20
2022-11-28T12:21:25.067Z,15.47
2022-11-28T12:24:05.985Z,13.43
2022-11-28T12:26:40.587Z,11.17
2022-11-28T12:29:28.220Z,12.67
2022-11-28T12:32:05.583Z,11.67
2022-11-28T12:34:39.845Z,11.33
2022-11-28T12:37:14.045Z,11.37
2022-11-28T12:39:49.484Z,11.47
2022-11-28T12:42:42.527Z,11.60
2022-11-28T12:45:26.401Z,12.97
2022-11-28T12:48:02.643Z,11.90
2022-11-28T12:50:33.822Z,12.80
2022-11-28T12:53:23.919Z,13.97
2022-11-28T12:55:56.337Z,12.40
2022-11-28T12:58:29.219Z,12.40
2022-11-28T13:01:04.363Z,12.50
2022-11-28T13:03:41.476Z,13.70
2022-11-28T13:06:19.331Z,11.60
2022-11-28T13:08:54.827Z,12.40
2022-11-28T13:11:34.686Z,12.07
2022-11-28T13:14:06.599Z,12.67
2022-11-28T13:16:42.798Z,12.60
2022-11-28T13:19:25.846Z,12.10
2022-11-28T13:21:56.964Z,12.60
2022-11-28T13:24:28.692Z,11.30
2022-11-28T13:27:02.114Z,12.30
2022-11-28T13:29:34.826Z,11.93
2022-11-28T13:32:09.876Z,11.90
2022-11-28T13:34:37.717Z,12.80
2022-11-28T13:40:01.076Z,12.50
2022-11-28T13:45:31.773Z,12.60
2022-11-28T13:48:01.672Z,13.10
2022-11-28T13:50:41.591Z,11.50
2022-11-28T13:53:23.797Z,13.07
2022-11-28T13:55:53.169Z,12.90
2022-11-28T13:58:28.250Z,11.13
2022-11-28T14:01:01.902Z,12.13
2022-11-28T14:03:32.360Z,13.30
2022-11-28T14:06:01.734Z,12.67
2022-11-28T14:08:33.469Z,12.47
2022-11-28T14:11:12.844Z,12.30
2022-11-28T14:13:50.710Z,11.63
2022-11-28T14:16:26.344Z,14.33
2022-11-28T14:19:15.719Z,11.87
2022-11-28T14:21:54.483Z,12.40
2022-11-28T14:24:28.575Z,13.20
2022-11-28T14:26:58.758Z,13.93
2022-11-28T14:29:31.941Z,13.63
2022-11-28T14:32:28.535Z,15.63
2022-11-28T14:34:50.423Z,13.20
2022-11-28T14:37:50.454Z,13.63
2022-11-28T14:41:08.943Z,14.47
2022-11-28T14:43:43.765Z,13.83
2022-11-28T14:46:31.854Z,13.93
2022-11-28T14:49:23.011Z,15.00
2022-11-28T14:52:39.003Z,13.73
2022-11-28T14:55:20.496Z,14.30
2022-11-28T14:58:01.078Z,15.10
2022-11-28T15:00:30.168Z,13.77
2022-11-28T15:03:11.127Z,14.90
2022-11-28T15:05:41.421Z,15.80
2022-11-28T15:08:40.366Z,14.03
2022-11-28T15:11:21.065Z,14.10
2022-11-28T15:14:00.317Z,15.43
2022-11-28T15:16:29.989Z,14.23
2022-11-28T15:19:00.393Z,16.07
2022-11-28T15:21:29.076Z,14.63
2022-11-28T15:23:57.137Z,14.73
2022-11-28T15:26:30.532Z,16.90
2022-11-28T15:29:12.083Z,16.23
2022-11-28T15:31:40.004Z,15.10
2022-11-28T15:34:10.051Z,14.80
2022-11-28T15:36:39.243Z,15.20
2022-11-28T15:39:20.440Z,18.53
2022-11-28T15:41:49.454Z,15.67
2022-11-28T15:44:18.062Z,15.30
2022-11-28T15:46:45.900Z,15.90
2022-11-28T15:49:27.397Z,16.50
2022-11-28T15:51:56.598Z,16.10
2022-11-28T15:54:35.091Z,16.50
2022-11-28T15:57:05.714Z,16.53
2022-11-28T15:59:34.347Z,15.77
2022-11-28T16:02:05.583Z,16.20
2022-11-28T16:04:33.493Z,16.70
2022-11-28T16:07:02.552Z,15.97
2022-11-28T16:09:33.837Z,15.20
2022-11-28T16:12:04.323Z,17.10
2022-11-28T16:14:33.109Z,17.83
2022-11-28T16:17:02.672Z,18.10
2022-11-28T16:19:32.879Z,16.17
2022-11-28T16:22:02.517Z,18.23
2022-11-28T16:24:38.585Z,17.40
2022-11-28T16:27:07.870Z,18.80
2022-11-28T16:29:36.977Z,17.07
2022-11-28T16:32:09.064Z,18.70
2022-11-28T16:34:46.933Z,17.90
2022-11-28T16:37:14.944Z,18.20
2022-11-28T16:39:42.735Z,18.20
2022-11-28T16:42:17.363Z,17.23
2022-11-28T16:44:45.298Z,18.07
2022-11-28T16:47:27.196Z,17.90
2022-11-28T16:50:16.348Z,20.20
2022-11-28T16:52:48.718Z,16.00
2022-11-28T16:55:41.609Z,17.83
2022-11-28T16:58:18.516Z,20.87
2022-11-28T17:00:51.970Z,17.37
2022-11-28T17:03:41.892Z,17.60
2022-11-28T17:06:17.241Z,19.33
2022-11-28T17:08:44.883Z,18.60
2022-11-28T17:11:12.912Z,17.57
2022-11-28T17:13:42.194Z,18.00
2022-11-28T17:16:16.932Z,18.30
2022-11-28T17:18:45.258Z,18.90
2022-11-28T17:21:13.985Z,19.33
2022-11-28T17:23:42.161Z,18.80
2022-11-28T17:26:10.596Z,18.70
2022-11-28T17:28:38.776Z,17.80
2022-11-28T17:31:08.067Z,21.53
2022-11-28T17:33:38.393Z,19.70
2022-11-28T17:36:10.460Z,19.40
2022-11-28T17:38:38.038Z,17.93
2022-11-28T17:41:06.183Z,20.40
2022-11-28T17:43:38.857Z,18.87
2022-11-28T17:46:08.461Z,18.93
2022-11-28T17:48:36.371Z,20.23
2022-11-28T17:51:04.166Z,19.07
2022-11-28T17:53:32.254Z,20.03
2022-11-28T17:56:00.649Z,18.60
2022-11-28T17:58:29.302Z,18.90
2022-11-28T18:01:00.737Z,19.60
2022-11-28T18:03:30.414Z,17.47
2022-11-28T18:05:58.374Z,19.40
2022-11-28T18:08:26.360Z,18.13
2022-11-28T18:11:03.422Z,19.83
2022-11-28T18:13:31.229Z,19.27
2022-11-28T18:15:59.185Z,21.27
2022-11-28T18:18:27.380Z,19.67
2022-11-28T18:20:56.726Z,20.60
2022-11-28T18:23:24.974Z,18.67
2022-11-28T18:25:53.253Z,19.77
2022-11-28T18:28:22.023Z,19.10
2022-11-28T18:30:49.846Z,19.07
2022-11-28T18:33:18.035Z,50.00
2022-11-28T18:35:45.941Z,18.40
2022-11-28T18:38:17.407Z,20.20
2022-11-28T18:40:45.405Z,20.10
2022-11-28T18:43:13.291Z,17.90
2022-11-28T18:45:41.389Z,19.40
2022-11-28T18:48:09.091Z,16.67
2022-11-28T18:50:36.817Z,20.90
2022-11-28T18:53:04.885Z,19.83
2022-11-28T18:55:34.152Z,19.37
2022-11-28T18:58:02.116Z,19.27
2022-11-28T19:00:29.822Z,18.40
2022-11-28T19:02:58.133Z,17.93
2022-11-28T19:05:25.817Z,21.07
2022-11-28T19:07:53.647Z,18.73
2022-11-28T19:10:21.363Z,18.30
2022-11-28T19:12:50.531Z,19.90
2022-11-28T19:15:18.804Z,19.57
2022-11-28T19:17:48.218Z,17.73
2022-11-28T19:20:18.324Z,20.37
2022-11-28T19:22:46.284Z,19.20
2022-11-28T19:25:14.145Z,19.60
2022-11-28T19:27:42.033Z,18.70
2022-11-28T19:30:11.795Z,18.80
2022-11-28T19:32:40.106Z,19.63
2022-11-28T19:35:08.873Z,18.07
2022-11-28T19:37:36.919Z,18.83
2022-11-28T19:40:05.091Z,18.97
2022-11-28T19:42:32.901Z,20.00
2022-11-28T19:45:00.727Z,19.37
2022-11-28T19:47:29.815Z,18.83
2022-11-28T19:49:58.719Z,18.93
2022-11-28T19:52:26.595Z,19.77
2022-11-28T19:54:54.237Z,19.90
2022-11-28T19:57:21.933Z,17.70
2022-11-28T19:59:50.253Z,18.13
2022-11-28T20:02:21.528Z,18.83
2022-11-28T20:04:50.666Z,20.27
2022-11-28T20:07:18.563Z,19.37
2022-11-28T20:09:47.137Z,18.20
2022-11-28T20:12:15.028Z,19.70
2022-11-28T20:14:42.987Z,18.77
2022-11-28T20:17:10.643Z,18.73
2022-11-28T20:19:38.333Z,19.90
2022-11-28T20:22:07.270Z,19.70
2022-11-28T20:24:35.246Z,19.67
2022-11-28T20:27:03.079Z,17.73
2022-11-28T20:29:31.024Z,18.30
2022-11-28T20:31:58.965Z,19.63
2022-11-28T20:34:28.010Z,19.40
2022-11-28T20:36:55.792Z,19.00
2022-11-28T20:39:26.376Z,18.67
2022-11-28T20:41:54.075Z,19.63
2022-11-28T20:44:21.869Z,19.40
2022-11-28T20:46:50.010Z,18.93
2022-11-28T20:49:18.339Z,19.77
2022-11-28T20:51:46.272Z,18.20
2022-11-28T20:54:14.658Z,19.50
2022-11-28T20:57:19.225Z,18.07
2022-11-28T20:59:32.422Z,19.97
2022-11-28T21:02:00.225Z,18.67
2022-11-28T21:04:27.988Z,18.97
2022-11-28T21:06:55.765Z,19.10
2022-11-28T21:09:23.824Z,18.07
2022-11-28T21:11:58.205Z,22.40
2022-11-28T21:14:27.485Z,20.37
2022-11-28T21:16:55.775Z,18.20
2022-11-28T21:19:23.688Z,19.47
2022-11-28T21:21:51.411Z,19.10
2022-11-28T21:24:19.013Z,20.40
2022-11-28T21:26:52.975Z,19.00
2022-11-28T21:29:23.391Z,18.70
2022-11-28T21:31:51.243Z,20.87
2022-11-28T21:34:19.440Z,20.57
2022-11-28T21:36:47.469Z,19.27
2022-11-28T21:39:18.522Z,20.80
2022-11-28T21:41:46.574Z,20.20
2022-11-28T21:44:14.163Z,20.83
2022-11-28T21:46:43.187Z,20.00
2022-11-28T21:49:11.112Z,19.00
2022-11-28T21:51:40.678Z,18.80
2022-11-28T21:54:08.781Z,18.50
2022-11-28T21:56:36.977Z,19.03
2022-11-28T21:59:05.663Z,20.17
2022-11-28T22:01:33.628Z,19.27
2022-11-28T22:04:03.302Z,20.43
2022-11-28T22:06:32.450Z,19.90
2022-11-28T22:09:08.743Z,20.20
2022-11-28T22:11:37.191Z,19.60
2022-11-28T22:14:04.835Z,20.97
2022-11-28T22:16:33.295Z,20.07
2022-11-28T22:19:02.470Z,20.90
2022-11-28T22:24:17.958Z,19.57
2022-11-28T22:26:45.569Z,19.17
2022-11-28T22:29:13.852Z,20.77
2022-11-28T22:31:42.003Z,20.53
2022-11-28T22:34:11.187Z,19.03
2022-11-28T22:36:38.993Z,20.30
2022-11-28T22:39:07.118Z,21.53
2022-11-28T22:41:35.072Z,20.50
2022-11-28T22:44:04.245Z,20.93
2022-11-28T22:46:32.725Z,20.00
2022-11-28T22:49:01.590Z,21.23
2022-11-28T22:51:31.456Z,19.80
2022-11-28T22:54:00.670Z,20.73
2022-11-28T22:56:30.122Z,20.93
2022-11-28T22:58:58.976Z,20.57
2022-11-28T23:01:30.162Z,19.60
2022-11-28T23:03:57.982Z,22.53
2022-11-28T23:06:27.436Z,21.37
2022-11-28T23:08:57.550Z,20.20
2022-11-28T23:11:29.065Z,22.90
2022-11-28T23:13:56.745Z,19.13
2022-11-28T23:16:26.901Z,19.70
2022-11-28T23:18:56.708Z,23.23
2022-11-28T23:21:25.657Z,21.20
2022-11-28T23:23:53.836Z,21.90
2022-11-28T23:26:25.370Z,22.17
2022-11-28T23:28:53.838Z,20.10
2022-11-28T23:31:23.467Z,22.67
2022-11-28T23:33:51.690Z,22.67
2022-11-28T23:36:21.244Z,22.33
2022-11-28T23:38:50.581Z,21.90
2022-11-28T23:41:18.710Z,23.87
2022-11-28T23:43:47.868Z,23.50
2022-11-28T23:46:16.333Z,24.80
2022-11-28T23:48:44.165Z,22.30
2022-11-28T23:51:12.884Z,23.03
2022-11-28T23:53:41.365Z,24.03
2022-11-28T23:56:11.405Z,24.47
2022-11-28T23:58:39.446Z,23.70
